Time;durP1;ratioP1;P1;durP2;ratioP2;P2;SDS_P1;SDS_P2;PMS_P1;PMS_P2;Temp;Humidity;BMP_temperature;BMP_pressure;BME280_temperature;BME280_humidity;BME280_pressure;Samples;Min_cycle;Max_cycle;Signal;HPM_P1;HPM_P2
2024/04/17 00:01:34;;;;;;;2.90;2.47;;;5.20;99.90;;;;;;5375356;26;20096;-63
2024/04/17 00:03:59;;;;;;;3.78;2.15;;;5.20;99.90;;;;;;5378767;26;20004;-63
2024/04/17 00:06:25;;;;;;;3.22;2.50;;;5.20;99.90;;;;;;5370937;26;20011;-60
2024/04/17 00:08:51;;;;;;;4.13;3.03;;;5.20;99.90;;;;;;5352474;26;20009;-57
2024/04/17 00:11:16;;;;;;;3.47;2.55;;;5.20;99.90;;;;;;5340926;26;20020;-61
2024/04/17 00:13:42;;;;;;;5.68;2.40;;;5.20;99.90;;;;;;5350066;26;20027;-58
2024/04/17 00:16:07;;;;;;;2.55;2.13;;;5.30;99.90;;;;;;5348763;26;20040;-61
2024/04/17 00:18:33;;;;;;;4.40;2.38;;;5.30;99.90;;;;;;5350546;26;20008;-62
2024/04/17 00:20:59;;;;;;;4.35;3.05;;;5.20;99.90;;;;;;5362999;26;20556;-61
2024/04/17 00:23:25;;;;;;;5.90;3.45;;;5.20;99.90;;;;;;5341818;26;19998;-62
2024/04/17 00:25:53;;;;;;;3.83;2.30;;;5.20;99.90;;;;;;5343783;26;20012;-62
2024/04/17 00:28:19;;;;;;;5.00;2.72;;;5.20;99.90;;;;;;5336696;26;20051;-60
2024/04/17 00:30:45;;;;;;;3.58;2.42;;;5.20;99.90;;;;;;5320415;26;20016;-62
2024/04/17 00:33:11;;;;;;;3.00;2.40;;;5.20;99.90;;;;;;5378523;26;20008;-61
2024/04/17 00:35:37;;;;;;;2.53;2.22;;;5.20;99.90;;;;;;5339938;26;20016;-61
2024/04/17 00:38:02;;;;;;;4.22;2.80;;;5.20;99.90;;;;;;5345983;26;19997;-60
2024/04/17 00:40:32;;;;;;;4.22;2.50;;;5.20;99.90;;;;;;5339414;26;20011;-58
2024/04/17 00:43:00;;;;;;;3.65;2.50;;;5.20;99.90;;;;;;5339165;26;20039;-61
2024/04/17 00:45:30;;;;;;;6.05;2.60;;;5.20;99.90;;;;;;5340953;26;20000;-61
2024/04/17 00:47:55;;;;;;;5.00;2.83;;;5.10;99.90;;;;;;5336255;26;20015;-55
2024/04/17 00:50:21;;;;;;;2.70;2.20;;;5.10;99.90;;;;;;5342163;26;20580;-59
2024/04/17 00:52:46;;;;;;;3.03;2.63;;;5.10;99.90;;;;;;5334804;26;20424;-60
2024/04/17 00:55:12;;;;;;;3.50;2.65;;;5.10;99.90;;;;;;5335962;26;20000;-55
2024/04/17 00:57:39;;;;;;;3.30;2.72;;;5.00;99.90;;;;;;5328154;26;20011;-59
2024/04/17 01:00:05;;;;;;;3.22;2.33;;;5.00;99.90;;;;;;5330022;26;20005;-59
2024/04/17 01:02:31;;;;;;;4.53;2.42;;;5.00;99.90;;;;;;5326958;26;19993;-61
2024/04/17 01:04:56;;;;;;;3.28;2.53;;;5.00;99.90;;;;;;5329258;26;20567;-57
2024/04/17 01:07:22;;;;;;;4.40;2.92;;;4.90;99.90;;;;;;5336701;26;20477;-62
2024/04/17 01:09:48;;;;;;;3.05;2.35;;;4.90;99.90;;;;;;5329162;26;20100;-60
2024/04/17 01:12:13;;;;;;;2.83;2.50;;;4.90;99.90;;;;;;5326970;26;20001;-61
2024/04/17 01:14:39;;;;;;;3.42;2.47;;;4.90;99.90;;;;;;5325467;26;20082;-57
2024/04/17 01:17:04;;;;;;;4.57;3.03;;;4.80;99.90;;;;;;5328481;26;20005;-60
2024/04/17 01:19:30;;;;;;;3.33;2.70;;;4.80;99.90;;;;;;5327941;26;20002;-58
2024/04/17 01:21:56;;;;;;;3.15;2.20;;;4.80;99.90;;;;;;5325643;26;19993;-55
2024/04/17 01:24:21;;;;;;;4.10;2.95;;;4.80;99.90;;;;;;5327176;26;20030;-55
2024/04/17 01:26:47;;;;;;;3.83;2.40;;;4.80;99.90;;;;;;5332182;26;20866;-59
2024/04/17 01:29:12;;;;;;;3.25;2.63;;;4.70;99.90;;;;;;5330461;26;20020;-59
2024/04/17 01:31:38;;;;;;;5.95;2.80;;;4.70;99.90;;;;;;5332909;26;19997;-58
2024/04/17 01:34:03;;;;;;;3.50;3.10;;;4.70;99.90;;;;;;5331520;26;20017;-60
2024/04/17 01:36:29;;;;;;;4.35;2.60;;;4.70;99.90;;;;;;5334220;26;20000;-61
2024/04/17 01:38:54;;;;;;;4.55;2.83;;;4.70;99.90;;;;;;5329075;26;20028;-61
2024/04/17 01:41:20;;;;;;;4.38;2.70;;;4.70;99.90;;;;;;5329626;26;20004;-61
2024/04/17 01:43:45;;;;;;;4.25;2.88;;;4.70;99.90;;;;;;5325491;26;20006;-61
2024/04/17 01:46:11;;;;;;;3.67;2.58;;;4.60;99.90;;;;;;5329758;26;20001;-56
2024/04/17 01:48:37;;;;;;;6.10;2.58;;;4.60;99.90;;;;;;5328683;26;20024;-61
2024/04/17 01:51:02;;;;;;;4.65;2.28;;;4.50;99.90;;;;;;5331219;26;20412;-57
2024/04/17 01:53:28;;;;;;;3.30;2.58;;;4.50;99.90;;;;;;5322438;26;20044;-61
2024/04/17 01:55:54;;;;;;;4.55;2.63;;;4.50;99.90;;;;;;5331817;26;20036;-57
2024/04/17 01:58:19;;;;;;;3.15;2.45;;;4.40;99.90;;;;;;5329706;26;20350;-54
2024/04/17 02:00:45;;;;;;;3.00;2.50;;;4.40;99.90;;;;;;5331514;26;20082;-59
2024/04/17 02:03:10;;;;;;;2.80;2.53;;;4.40;99.90;;;;;;5331801;26;20004;-61
2024/04/17 02:05:36;;;;;;;3.22;2.50;;;4.30;99.90;;;;;;5342535;26;20043;-55
2024/04/17 02:08:01;;;;;;;3.15;2.75;;;4.30;99.90;;;;;;5342510;26;20082;-59
2024/04/17 02:10:27;;;;;;;4.03;2.63;;;4.30;99.90;;;;;;5346081;26;20008;-59
2024/04/17 02:12:52;;;;;;;8.02;3.40;;;4.20;99.90;;;;;;5346596;26;19996;-60
2024/04/17 02:15:18;;;;;;;4.22;2.60;;;4.10;99.90;;;;;;5346361;26;19997;-55
2024/04/17 02:17:44;;;;;;;3.38;2.40;;;4.10;99.90;;;;;;5343840;26;20000;-59
2024/04/17 02:20:09;;;;;;;3.00;2.70;;;4.10;99.90;;;;;;5342078;26;19993;-64
2024/04/17 02:22:35;;;;;;;3.80;3.00;;;4.00;99.90;;;;;;5353722;26;20000;-59
2024/04/17 02:25:00;;;;;;;7.00;3.03;;;4.00;99.90;;;;;;5345770;26;20001;-54
2024/04/17 02:27:26;;;;;;;3.90;2.40;;;3.90;99.90;;;;;;5341335;26;20013;-58
2024/04/17 02:29:52;;;;;;;4.55;2.88;;;3.90;99.90;;;;;;5342656;26;20077;-60
2024/04/17 02:32:18;;;;;;;3.28;2.58;;;3.90;99.90;;;;;;5348171;26;20375;-56
2024/04/17 02:34:43;;;;;;;4.93;3.28;;;3.80;99.90;;;;;;5349157;26;19996;-61
2024/04/17 02:37:09;;;;;;;6.15;3.10;;;3.80;99.90;;;;;;5347941;26;20015;-61
2024/04/17 02:39:35;;;;;;;3.72;2.90;;;3.80;99.90;;;;;;5342684;26;20018;-60
2024/04/17 02:42:01;;;;;;;5.45;3.20;;;3.90;99.90;;;;;;5350424;26;20018;-60
2024/04/17 02:44:27;;;;;;;8.95;3.30;;;3.80;99.90;;;;;;5343279;26;20001;-62
2024/04/17 02:46:52;;;;;;;4.15;3.25;;;3.80;99.90;;;;;;5354444;26;20356;-59
2024/04/17 02:49:18;;;;;;;3.58;2.95;;;3.80;99.90;;;;;;5347188;26;20648;-61
2024/04/17 02:51:46;;;;;;;3.95;3.03;;;3.80;99.90;;;;;;5343195;26;20000;-58
2024/04/17 02:54:11;;;;;;;3.95;3.20;;;3.80;99.90;;;;;;5329951;26;20013;-59
2024/04/17 02:56:38;;;;;;;3.78;2.88;;;3.70;99.90;;;;;;5345553;26;20124;-61
2024/04/17 02:59:03;;;;;;;3.67;2.75;;;3.70;99.90;;;;;;5345789;26;20348;-61
2024/04/17 03:01:29;;;;;;;3.90;2.92;;;3.70;99.90;;;;;;5344095;26;20016;-59
2024/04/17 03:03:57;;;;;;;3.40;3.10;;;3.70;99.90;;;;;;5349312;26;20482;-58
2024/04/17 03:06:23;;;;;;;5.93;3.33;;;3.70;99.90;;;;;;5346084;26;20024;-62
2024/04/17 03:08:49;;;;;;;4.72;2.80;;;3.70;99.90;;;;;;5349303;26;20071;-55
2024/04/17 03:11:14;;;;;;;4.60;2.92;;;3.60;99.90;;;;;;5347247;26;20011;-59
2024/04/17 03:13:40;;;;;;;4.00;3.03;;;3.60;99.90;;;;;;5345463;26;20008;-61
2024/04/17 03:16:06;;;;;;;4.28;2.72;;;3.50;99.90;;;;;;5348731;26;19996;-61
2024/04/17 03:18:32;;;;;;;3.95;2.80;;;3.50;99.90;;;;;;5344556;26;20041;-61
2024/04/17 03:21:02;;;;;;;4.60;2.28;;;3.50;99.90;;;;;;5350734;26;20016;-59
2024/04/17 03:23:27;;;;;;;3.85;3.00;;;3.50;99.90;;;;;;5341351;26;19996;-56
2024/04/17 03:25:56;;;;;;;5.75;3.60;;;3.50;99.90;;;;;;5344949;26;20531;-54
2024/04/17 03:28:22;;;;;;;5.40;3.00;;;3.50;99.90;;;;;;5345542;26;20012;-59
2024/04/17 03:30:47;;;;;;;3.47;3.10;;;3.40;99.90;;;;;;5351379;26;20344;-61
2024/04/17 03:33:13;;;;;;;5.22;2.75;;;3.40;99.90;;;;;;5342636;26;20005;-62
2024/04/17 03:35:39;;;;;;;4.47;2.42;;;3.30;99.90;;;;;;5337697;26;20001;-60
2024/04/17 03:38:04;;;;;;;4.70;3.25;;;3.30;99.90;;;;;;5344125;26;19992;-56
2024/04/17 03:40:30;;;;;;;5.97;2.95;;;3.20;99.90;;;;;;5344928;26;20005;-59
2024/04/17 03:42:55;;;;;;;3.08;2.70;;;3.20;99.90;;;;;;5337670;26;20584;-56
2024/04/17 03:45:21;;;;;;;3.80;3.50;;;3.20;99.90;;;;;;5340028;26;20063;-59
2024/04/17 03:47:47;;;;;;;4.68;3.58;;;3.10;99.90;;;;;;5348572;26;19996;-58
2024/04/17 03:50:12;;;;;;;7.57;3.22;;;3.10;99.90;;;;;;5341840;26;20001;-58
2024/04/17 03:52:38;;;;;;;3.60;3.20;;;3.00;99.90;;;;;;5346207;26;20016;-64
2024/04/17 03:55:03;;;;;;;5.22;3.28;;;3.00;99.90;;;;;;5339745;26;20000;-62
2024/04/17 03:57:30;;;;;;;5.60;3.50;;;3.00;99.90;;;;;;5338805;26;20000;-61
2024/04/17 03:59:56;;;;;;;3.55;2.88;;;3.00;99.90;;;;;;5353490;26;20024;-59
2024/04/17 04:02:21;;;;;;;4.40;3.00;;;2.90;99.90;;;;;;5338779;26;20305;-59
2024/04/17 04:04:47;;;;;;;3.40;3.10;;;2.90;99.90;;;;;;5347246;26;20071;-60
2024/04/17 04:07:13;;;;;;;4.97;3.22;;;2.90;99.90;;;;;;5344748;26;20000;-57
2024/04/17 04:09:38;;;;;;;6.72;3.05;;;2.90;99.90;;;;;;5337928;26;20023;-60
2024/04/17 04:12:05;;;;;;;7.82;3.47;;;2.80;99.90;;;;;;5342336;26;19996;-59
2024/04/17 04:14:30;;;;;;;4.75;3.38;;;2.80;99.90;;;;;;5342615;26;20588;-61
2024/04/17 04:16:56;;;;;;;3.75;2.83;;;2.80;99.90;;;;;;5341376;26;20037;-59
2024/04/17 04:19:21;;;;;;;4.05;3.10;;;2.80;99.90;;;;;;5344733;26;20004;-60
2024/04/17 04:21:47;;;;;;;5.55;3.13;;;2.70;99.90;;;;;;5355863;26;19992;-61
2024/04/17 04:24:13;;;;;;;4.00;3.30;;;2.70;99.90;;;;;;5342558;26;20012;-62
2024/04/17 04:26:38;;;;;;;2.83;2.53;;;2.70;99.90;;;;;;5343879;26;20011;-58
2024/04/17 04:29:04;;;;;;;4.07;2.78;;;2.70;99.90;;;;;;5344370;26;20005;-59
2024/04/17 04:31:30;;;;;;;5.20;3.15;;;2.70;99.90;;;;;;5332165;26;19997;-58
2024/04/17 04:33:55;;;;;;;4.03;3.25;;;2.60;99.90;;;;;;5346278;26;20350;-61
2024/04/17 04:36:21;;;;;;;3.47;2.67;;;2.70;99.90;;;;;;5346381;26;19996;-60
2024/04/17 04:38:46;;;;;;;3.10;2.80;;;2.80;99.90;;;;;;5350036;26;20480;-58
2024/04/17 04:41:12;;;;;;;5.18;3.88;;;2.70;99.90;;;;;;5339718;26;19993;-61
2024/04/17 04:43:37;;;;;;;4.53;3.90;;;2.70;99.90;;;;;;5340036;26;20001;-63
2024/04/17 04:46:03;;;;;;;3.78;3.28;;;2.70;99.90;;;;;;5341907;26;19998;-61
2024/04/17 04:48:29;;;;;;;4.20;3.10;;;2.70;99.90;;;;;;5329856;26;20014;-57
2024/04/17 04:50:54;;;;;;;3.97;3.15;;;2.70;99.90;;;;;;5344565;26;20005;-58
2024/04/17 04:53:20;;;;;;;3.00;2.60;;;2.70;99.90;;;;;;5347503;26;20013;-58
2024/04/17 04:55:56;;;;;;;6.78;3.17;;;2.70;99.90;;;;;;5349749;26;20471;-58
2024/04/17 04:58:21;;;;;;;;;;;2.70;99.90;;;;;;5340753;26;20091;-60
2024/04/17 05:00:47;;;;;;;3.83;2.77;;;2.70;99.90;;;;;;5341105;26;19934;-62
2024/04/17 05:03:13;;;;;;;5.05;3.65;;;2.70;99.90;;;;;;5344312;26;20033;-61
2024/04/17 05:05:38;;;;;;;3.88;3.15;;;2.70;99.90;;;;;;5342482;26;20001;-58
2024/04/17 05:08:04;;;;;;;3.17;2.88;;;2.70;99.90;;;;;;5348723;26;20016;-61
2024/04/17 05:10:30;;;;;;;5.03;3.30;;;2.70;99.90;;;;;;5350372;26;20016;-60
2024/04/17 05:12:55;;;;;;;3.13;2.78;;;2.70;99.90;;;;;;5347939;26;20002;-61
2024/04/17 05:15:20;;;;;;;5.30;2.97;;;2.80;99.90;;;;;;5347433;26;20007;-54
2024/04/17 05:17:46;;;;;;;4.20;2.70;;;2.80;99.90;;;;;;5349205;26;20348;-58
2024/04/17 05:20:12;;;;;;;3.13;2.75;;;2.80;99.90;;;;;;5352152;26;20007;-60
2024/04/17 05:22:37;;;;;;;3.70;3.10;;;2.80;99.90;;;;;;5340178;26;22601;-56
2024/04/17 05:25:03;;;;;;;3.25;2.67;;;2.90;99.90;;;;;;5343987;26;20048;-63
2024/04/17 05:27:29;;;;;;;4.50;2.72;;;2.90;99.90;;;;;;5346399;26;20421;-62
2024/04/17 05:29:55;;;;;;;5.22;3.08;;;2.90;99.90;;;;;;5345126;26;20012;-65
2024/04/17 05:32:20;;;;;;;3.38;2.90;;;2.90;99.90;;;;;;5341705;26;19997;-61
2024/04/17 05:34:46;;;;;;;3.33;3.03;;;3.00;99.90;;;;;;5344723;26;20368;-63
2024/04/17 05:37:12;;;;;;;5.30;2.97;;;3.00;99.90;;;;;;5344729;26;20005;-62
2024/04/17 05:39:37;;;;;;;4.22;3.03;;;3.00;99.90;;;;;;5344020;26;20484;-57
2024/04/17 05:42:03;;;;;;;4.22;2.78;;;3.10;99.90;;;;;;5350312;26;20005;-60
2024/04/17 05:44:30;;;;;;;5.47;3.42;;;3.10;99.90;;;;;;5335970;26;19997;-59
2024/04/17 05:46:55;;;;;;;3.72;2.35;;;3.20;99.90;;;;;;5343481;26;20759;-61
2024/04/17 05:49:21;;;;;;;6.07;3.38;;;3.20;99.90;;;;;;5346722;26;20011;-60
2024/04/17 05:51:49;;;;;;;4.28;2.40;;;3.30;99.90;;;;;;5350084;26;20548;-59
2024/04/17 05:54:15;;;;;;;3.67;2.95;;;3.30;99.90;;;;;;5353124;26;20053;-61
2024/04/17 05:56:41;;;;;;;4.70;2.83;;;3.40;99.90;;;;;;5345866;26;20006;-60
2024/04/17 05:59:06;;;;;;;4.05;2.90;;;3.50;99.90;;;;;;5489433;21;20042;-82
2024/04/17 06:01:32;;;;;;;3.85;2.75;;;3.50;99.90;;;;;;5508269;26;19998;-82
2024/04/17 06:03:57;;;;;;;3.15;2.75;;;3.60;99.90;;;;;;5486230;26;19993;-83
2024/04/17 06:06:23;;;;;;;5.55;2.85;;;3.70;99.90;;;;;;5478860;26;19994;-82
2024/04/17 06:08:48;;;;;;;5.35;2.83;;;3.80;99.90;;;;;;5486436;26;20045;-83
2024/04/17 06:11:14;;;;;;;5.80;2.80;;;3.90;99.90;;;;;;5457909;26;20034;-81
2024/04/17 06:13:40;;;;;;;2.58;2.33;;;4.00;99.90;;;;;;5450003;26;19991;-84
2024/04/17 06:16:06;;;;;;;2.75;2.08;;;4.10;99.90;;;;;;5448497;26;20004;-83
2024/04/17 06:18:32;;;;;;;4.38;2.22;;;4.30;99.90;;;;;;5455084;26;20002;-82
2024/04/17 06:20:57;;;;;;;5.68;2.03;;;4.40;99.90;;;;;;5449425;26;20010;-82
2024/04/17 06:23:23;;;;;;;3.03;2.05;;;4.50;99.90;;;;;;5482783;26;19998;-83
2024/04/17 06:25:48;;;;;;;6.22;2.38;;;4.60;99.90;;;;;;5479987;26;19994;-82
2024/04/17 06:28:17;;;;;;;3.15;1.83;;;4.70;99.90;;;;;;5482048;26;20025;-81
2024/04/17 06:30:43;;;;;;;2.88;2.15;;;4.80;99.90;;;;;;5476497;26;20001;-82
2024/04/17 06:33:09;;;;;;;6.22;2.45;;;4.90;99.90;;;;;;5450627;26;20554;-81
2024/04/17 06:35:35;;;;;;;7.13;2.95;;;4.90;99.90;;;;;;5483500;26;20017;-82
2024/04/17 06:38:01;;;;;;;5.20;1.85;;;5.00;99.90;;;;;;5456208;26;20005;-82
2024/04/17 06:40:27;;;;;;;3.15;2.45;;;5.10;99.90;;;;;;5451501;26;20002;-82
2024/04/17 06:42:52;;;;;;;3.38;1.88;;;5.20;99.90;;;;;;5449133;26;20006;-83
2024/04/17 06:45:18;;;;;;;2.75;2.15;;;5.30;99.90;;;;;;5480004;26;20679;-83
2024/04/17 06:47:44;;;;;;;2.45;1.55;;;5.50;99.90;;;;;;5474826;26;19994;-83
2024/04/17 06:50:10;;;;;;;2.70;1.58;;;5.60;99.90;;;;;;5478720;26;20007;-84
2024/04/17 06:52:35;;;;;;;3.83;1.70;;;5.80;99.90;;;;;;5497673;26;20229;-82
2024/04/17 06:55:02;;;;;;;2.17;1.48;;;6.00;99.90;;;;;;5503871;25;20001;-84
2024/04/17 06:57:28;;;;;;;5.10;1.85;;;6.30;99.90;;;;;;5453030;26;19990;-83
2024/04/17 06:59:53;;;;;;;3.55;1.77;;;6.50;99.90;;;;;;5456725;26;19998;-80
2024/04/17 07:02:19;;;;;;;2.42;1.73;;;6.60;99.90;;;;;;5484122;26;20076;-83
2024/04/17 07:04:44;;;;;;;3.25;1.92;;;6.80;99.90;;;;;;5474588;26;20007;-83
2024/04/17 07:07:10;;;;;;;4.25;1.92;;;6.90;99.90;;;;;;5479233;26;20009;-85
2024/04/17 07:09:35;;;;;;;2.65;1.60;;;7.10;99.90;;;;;;5447419;26;20002;-83
2024/04/17 07:12:01;;;;;;;1.75;1.25;;;7.30;99.90;;;;;;5471546;26;20046;-83
2024/04/17 07:14:26;;;;;;;4.47;1.55;;;7.50;99.90;;;;;;5441949;26;19991;-83
2024/04/17 07:16:52;;;;;;;3.45;1.80;;;7.70;99.90;;;;;;5476312;26;19998;-82
2024/04/17 07:19:19;;;;;;;3.65;1.40;;;7.90;99.90;;;;;;5478536;26;20056;-83
2024/04/17 07:21:45;;;;;;;4.50;1.38;;;8.10;99.90;;;;;;5477153;26;20018;-83
2024/04/17 07:24:10;;;;;;;2.60;1.15;;;8.30;99.90;;;;;;5479115;26;20367;-83
2024/04/17 07:26:36;;;;;;;3.55;1.15;;;8.40;99.90;;;;;;5481429;26;19998;-84
2024/04/17 07:29:01;;;;;;;3.78;1.63;;;8.60;99.90;;;;;;5479653;26;19994;-82
2024/04/17 07:31:27;;;;;;;6.65;1.77;;;8.80;99.90;;;;;;5447635;26;19994;-83
2024/04/17 07:33:53;;;;;;;1.95;1.40;;;9.00;99.90;;;;;;5443154;26;19995;-84
2024/04/17 07:36:18;;;;;;;3.10;1.60;;;9.20;99.90;;;;;;5477310;26;20013;-83
2024/04/17 07:38:47;;;;;;;5.57;1.58;;;9.30;99.90;;;;;;5478930;26;20013;-83
2024/04/17 07:41:12;;;;;;;3.50;1.33;;;9.40;99.90;;;;;;5481348;26;20002;-83
2024/04/17 07:43:38;;;;;;;2.85;1.20;;;9.50;99.90;;;;;;5450093;26;19994;-83
2024/04/17 07:46:03;;;;;;;2.08;1.20;;;9.60;99.90;;;;;;5449392;26;20071;-82
2024/04/17 07:48:30;;;;;;;1.75;1.20;;;9.90;99.90;;;;;;5479454;26;20459;-84
2024/04/17 07:50:55;;;;;;;2.35;1.48;;;10.00;99.90;;;;;;5473276;26;20024;-83
2024/04/17 07:53:21;;;;;;;8.63;1.60;;;10.10;99.90;;;;;;5481689;26;19995;-83
2024/04/17 07:55:47;;;;;;;3.50;1.67;;;10.00;99.90;;;;;;5445974;26;19998;-84
2024/04/17 07:58:12;;;;;;;3.90;1.50;;;10.10;99.90;;;;;;5481250;26;20388;-84
2024/04/17 08:00:39;;;;;;;3.40;0.98;;;10.30;99.90;;;;;;5477967;26;20001;-83
2024/04/17 08:03:06;;;;;;;3.78;1.52;;;10.30;99.90;;;;;;5481676;26;20013;-84
2024/04/17 08:05:32;;;;;;;3.25;1.38;;;10.50;99.90;;;;;;5479167;26;20516;-83
2024/04/17 08:07:58;;;;;;;4.95;1.65;;;10.70;99.90;;;;;;5474408;26;19998;-85
2024/04/17 08:10:23;;;;;;;1.95;0.90;;;10.80;99.90;;;;;;5470721;26;20033;-84
2024/04/17 08:12:52;;;;;;;3.75;1.20;;;10.90;99.90;;;;;;5476718;26;20005;-83
2024/04/17 08:15:20;;;;;;;2.03;1.50;;;10.90;99.90;;;;;;5485749;26;20053;-84
2024/04/17 08:17:46;;;;;;;2.30;1.23;;;11.00;99.90;;;;;;5479262;26;20003;-84
2024/04/17 08:20:12;;;;;;;3.63;0.90;;;11.10;99.90;;;;;;5470279;26;20010;-84
2024/04/17 08:22:38;;;;;;;3.28;0.90;;;11.10;99.90;;;;;;5478349;26;20354;-84
2024/04/17 08:25:03;;;;;;;1.67;0.70;;;11.20;99.90;;;;;;5480645;26;20076;-83
2024/04/17 08:27:29;;;;;;;2.08;1.08;;;11.30;99.90;;;;;;5478463;26;20017;-82
2024/04/17 08:29:54;;;;;;;1.83;0.57;;;11.40;99.90;;;;;;5479710;26;20340;-83
2024/04/17 08:32:20;;;;;;;2.22;1.05;;;11.40;99.90;;;;;;5478058;26;20014;-84
2024/04/17 08:34:45;;;;;;;2.15;1.17;;;11.50;99.90;;;;;;5447441;26;20006;-82
2024/04/17 08:37:11;;;;;;;1.70;0.75;;;11.70;99.90;;;;;;5473506;26;20051;-84
2024/04/17 08:39:36;;;;;;;3.38;0.90;;;11.50;99.90;;;;;;5476022;26;19998;-83
2024/04/17 08:42:06;;;;;;;1.50;0.60;;;11.50;99.90;;;;;;5477082;26;20016;-83
2024/04/17 08:44:35;;;;;;;1.73;0.80;;;11.60;99.90;;;;;;5477717;26;19994;-83
2024/04/17 08:47:03;;;;;;;3.22;1.10;;;11.80;99.90;;;;;;5476522;26;20012;-82
2024/04/17 08:49:33;;;;;;;1.75;0.75;;;12.10;99.90;;;;;;5481929;26;19998;-83
2024/04/17 08:52:02;;;;;;;1.05;0.73;;;12.30;99.90;;;;;;5477090;26;19994;-84
2024/04/17 08:54:29;;;;;;;2.13;0.55;;;12.20;97.10;;;;;;5445527;26;19998;-83
2024/04/17 08:56:56;;;;;;;0.63;0.45;;;12.20;97.80;;;;;;5475886;26;19990;-83
2024/04/17 08:59:21;;;;;;;5.07;0.60;;;12.20;99.90;;;;;;5477000;26;19998;-85
2024/04/17 09:01:49;;;;;;;1.00;0.77;;;12.00;98.50;;;;;;5475149;26;20226;-82
2024/04/17 09:04:18;;;;;;;1.17;0.57;;;12.00;97.80;;;;;;5474362;26;20354;-83
2024/04/17 09:06:44;;;;;;;1.08;0.32;;;12.00;96.30;;;;;;5474937;26;20465;-83
2024/04/17 09:09:12;;;;;;;0.85;0.50;;;11.90;97.50;;;;;;5450757;26;20002;-83
2024/04/17 09:11:40;;;;;;;3.20;0.95;;;12.00;94.30;;;;;;5468416;26;20574;-83
2024/04/17 09:14:05;;;;;;;1.25;0.40;;;12.00;96.10;;;;;;5471456;26;20013;-84
2024/04/17 09:16:31;;;;;;;3.05;0.50;;;11.80;95.30;;;;;;5474607;26;19998;-84
2024/04/17 09:18:56;;;;;;;0.82;0.40;;;11.80;91.50;;;;;;5474788;26;20367;-83
2024/04/17 09:21:22;;;;;;;1.42;0.50;;;11.90;93.90;;;;;;5447681;26;19994;-83
2024/04/17 09:23:48;;;;;;;3.88;1.40;;;11.90;92.70;;;;;;5482589;26;20461;-83
2024/04/17 09:26:18;;;;;;;3.30;1.20;;;11.90;95.00;;;;;;5478889;26;19990;-83
2024/04/17 09:28:44;;;;;;;2.80;1.67;;;12.00;96.90;;;;;;5447777;26;19999;-83
2024/04/17 09:31:11;;;;;;;2.58;1.17;;;12.10;98.80;;;;;;5472538;26;19994;-83
2024/04/17 09:33:44;;;;;;;3.60;1.77;;;12.20;97.60;;;;;;5464575;26;19994;-82
2024/04/17 09:36:10;;;;;;;1.42;0.73;;;12.20;97.20;;;;;;5476452;26;19998;-82
2024/04/17 09:38:35;;;;;;;4.00;0.98;;;12.20;92.10;;;;;;5476826;26;20014;-83
2024/04/17 09:41:01;;;;;;;2.63;0.80;;;12.10;95.40;;;;;;5469455;26;20007;-82
2024/04/17 09:43:27;;;;;;;2.60;1.25;;;11.90;93.60;;;;;;5450115;26;19994;-83
2024/04/17 09:46:06;;;;;;;2.53;1.48;;;12.00;95.30;;;;;;5469305;26;20002;-83
2024/04/17 09:48:36;;;;;;;3.33;1.13;;;12.10;99.90;;;;;;5477993;26;20070;-84
2024/04/17 09:51:03;;;;;;;1.65;1.17;;;12.20;98.70;;;;;;5475021;26;20007;-84
2024/04/17 09:53:37;;;;;;;2.58;0.85;;;12.20;95.00;;;;;;5455429;26;19990;-83
2024/04/17 09:56:04;;;;;;;1.92;0.98;;;11.90;94.80;;;;;;5451051;26;20401;-83
2024/04/17 09:58:34;;;;;;;2.33;1.00;;;12.00;95.20;;;;;;5474474;26;20002;-83
2024/04/17 10:01:06;;;;;;;1.90;1.00;;;12.10;98.70;;;;;;5481638;26;20041;-83
2024/04/17 10:03:33;;;;;;;1.13;0.60;;;12.10;95.10;;;;;;5480144;26;19994;-83
2024/04/17 10:06:02;;;;;;;0.70;0.63;;;12.00;96.90;;;;;;5444937;26;20807;-83
2024/04/17 10:08:33;;;;;;;3.03;0.73;;;12.00;98.40;;;;;;5467282;26;19999;-82
2024/04/17 10:10:59;;;;;;;0.75;0.75;;;11.80;96.30;;;;;;5477637;26;20013;-83
2024/04/17 10:13:25;;;;;;;2.17;1.00;;;11.80;97.00;;;;;;5472761;26;20648;-84
2024/04/17 10:15:52;;;;;;;0.98;0.57;;;12.00;99.90;;;;;;5473599;26;20009;-84
2024/04/17 10:18:19;;;;;;;0.80;0.60;;;12.30;99.50;;;;;;5478707;26;19998;-82
2024/04/17 10:20:45;;;;;;;1.67;1.08;;;12.50;99.60;;;;;;5472735;26;19995;-82
2024/04/17 10:23:15;;;;;;;3.08;0.75;;;12.60;99.90;;;;;;5472165;26;20002;-82
2024/04/17 10:25:54;;;;;;;2.60;0.98;;;12.70;97.40;;;;;;5468929;26;19999;-83
2024/04/17 10:28:21;;;;;;;1.52;0.52;;;12.60;97.40;;;;;;5477167;26;20457;-83
2024/04/17 10:30:48;;;;;;;1.63;1.05;;;12.50;97.70;;;;;;5440199;26;20072;-82
2024/04/17 10:33:40;;;;;;;0.55;0.52;;;12.30;97.80;;;;;;5477877;26;20216;-82
2024/04/17 10:36:06;;;;;;;2.70;0.70;;;11.90;95.10;;;;;;5467543;26;20350;-84
2024/04/17 10:38:33;;;;;;;1.50;0.63;;;11.60;94.20;;;;;;5455502;26;20008;-83
2024/04/17 10:41:01;;;;;;;3.20;0.70;;;11.40;94.60;;;;;;5480303;26;20076;-82
2024/04/17 10:43:28;;;;;;;1.15;0.77;;;11.30;95.60;;;;;;5474734;26;19994;-83
2024/04/17 10:46:07;;;;;;;2.53;0.68;;;11.20;94.80;;;;;;5474631;26;20017;-82
2024/04/17 10:48:46;;;;;;;0.40;0.40;;;11.20;95.60;;;;;;5475265;26;20042;-83
2024/04/17 10:51:14;;;;;;;4.28;0.90;;;11.40;94.10;;;;;;5476342;26;19994;-83
2024/04/17 10:53:43;;;;;;;1.17;0.98;;;11.70;97.70;;;;;;5473644;26;20013;-82
2024/04/17 10:56:09;;;;;;;1.45;0.73;;;11.90;94.90;;;;;;5475383;26;20455;-83
2024/04/17 10:58:37;;;;;;;4.45;0.68;;;12.20;97.60;;;;;;5449496;26;20078;-83
2024/04/17 11:01:03;;;;;;;3.38;0.90;;;12.40;97.60;;;;;;5477755;26;20037;-83
2024/04/17 11:03:29;;;;;;;3.33;0.88;;;12.40;97.90;;;;;;5445265;26;20013;-83
2024/04/17 11:05:55;;;;;;;3.50;0.80;;;12.30;97.00;;;;;;5454949;26;19990;-83
2024/04/17 11:08:21;;;;;;;3.15;0.80;;;12.00;95.40;;;;;;5473594;26;20002;-82
2024/04/17 11:10:47;;;;;;;2.28;0.95;;;11.70;95.00;;;;;;5478607;26;20384;-82
2024/04/17 11:13:16;;;;;;;0.95;0.45;;;11.60;96.30;;;;;;5434319;26;19999;-83
2024/04/17 11:15:43;;;;;;;7.80;0.90;;;11.60;97.20;;;;;;5463204;26;20084;-83
2024/04/17 11:18:09;;;;;;;2.65;0.70;;;11.60;94.60;;;;;;5446307;26;20021;-81
2024/04/17 11:20:36;;;;;;;1.40;0.75;;;11.60;93.00;;;;;;5446188;26;19998;-83
2024/04/17 11:23:06;;;;;;;1.75;0.60;;;11.70;93.20;;;;;;5447434;26;19999;-83
2024/04/17 11:25:32;;;;;;;1.48;0.90;;;12.00;95.60;;;;;;5470518;26;19995;-83
2024/04/17 11:27:57;;;;;;;0.77;0.65;;;12.10;93.70;;;;;;5446102;26;20013;-82
2024/04/17 11:30:23;;;;;;;1.90;0.68;;;12.10;92.70;;;;;;5448979;26;20416;-83
2024/04/17 11:32:49;;;;;;;1.02;0.65;;;12.10;95.00;;;;;;5480163;26;19998;-83
2024/04/17 11:35:16;;;;;;;1.08;0.57;;;12.20;97.80;;;;;;5472973;26;19999;-83
2024/04/17 11:37:45;;;;;;;1.83;0.50;;;12.20;94.80;;;;;;5449303;26;20012;-83
2024/04/17 11:40:10;;;;;;;0.98;0.50;;;12.10;95.30;;;;;;5480051;26;20120;-82
2024/04/17 11:42:40;;;;;;;1.73;0.77;;;12.00;95.00;;;;;;5473042;26;20339;-83
2024/04/17 11:45:08;;;;;;;1.48;0.73;;;11.80;93.80;;;;;;5450143;26;19994;-81
2024/04/17 11:47:33;;;;;;;3.13;0.40;;;11.60;94.50;;;;;;5447965;26;19994;-82
2024/04/17 11:49:59;;;;;;;1.50;0.65;;;11.60;94.50;;;;;;5435133;26;20061;-82
2024/04/17 11:52:24;;;;;;;0.80;0.77;;;11.50;94.90;;;;;;5475805;26;19991;-82
2024/04/17 11:54:50;;;;;;;2.25;1.17;;;11.50;95.10;;;;;;5446879;26;20017;-84
2024/04/17 11:57:16;;;;;;;1.58;0.68;;;11.50;97.80;;;;;;5433157;26;19999;-82
2024/04/17 11:59:42;;;;;;;1.27;0.63;;;11.40;96.50;;;;;;5474286;26;20022;-82
2024/04/17 12:02:07;;;;;;;2.53;0.70;;;11.50;98.20;;;;;;5469488;26;19990;-81
2024/04/17 12:04:33;;;;;;;3.38;0.80;;;11.70;97.20;;;;;;5481494;26;20083;-82
2024/04/17 12:06:58;;;;;;;1.58;0.52;;;11.80;97.10;;;;;;5482199;26;20002;-81
2024/04/17 12:09:24;;;;;;;1.08;0.50;;;12.00;94.60;;;;;;5456425;26;20010;-83
2024/04/17 12:11:49;;;;;;;4.35;1.10;;;12.20;99.60;;;;;;5490751;26;20006;-82
2024/04/17 12:14:15;;;;;;;2.53;0.95;;;12.30;99.20;;;;;;5481860;26;20013;-83
2024/04/17 12:16:40;;;;;;;3.08;0.98;;;12.20;97.20;;;;;;5448437;26;20004;-82
2024/04/17 12:19:06;;;;;;;4.32;1.45;;;12.10;98.70;;;;;;5483588;26;20006;-82
2024/04/17 12:21:32;;;;;;;4.15;1.20;;;12.10;99.00;;;;;;5476455;26;20014;-82
2024/04/17 12:24:00;;;;;;;2.13;0.90;;;12.30;99.90;;;;;;5472499;26;19998;-81
2024/04/17 12:29:10;;;;;;;3.28;1.02;;;12.60;99.20;;;;;;5471420;26;20008;-81
2024/04/17 12:31:35;;;;;;;2.80;1.00;;;12.50;98.50;;;;;;5465784;26;20026;-81
2024/04/17 12:34:01;;;;;;;0.85;0.75;;;12.30;99.90;;;;;;5476942;26;20063;-81
2024/04/17 12:36:26;;;;;;;1.85;0.80;;;12.30;99.90;;;;;;5484121;26;20002;-81
2024/04/17 12:38:52;;;;;;;2.45;1.30;;;12.10;99.60;;;;;;5450306;26;20001;-82
2024/04/17 12:41:17;;;;;;;2.22;0.85;;;12.10;99.00;;;;;;5448258;26;19994;-82
2024/04/17 12:43:44;;;;;;;1.88;0.80;;;12.10;98.70;;;;;;5473104;26;20002;-81
2024/04/17 12:46:10;;;;;;;1.10;0.68;;;11.80;98.20;;;;;;5473192;26;19994;-81
2024/04/17 12:48:35;;;;;;;0.63;0.50;;;11.80;99.10;;;;;;5450352;26;20013;-82
2024/04/17 12:51:01;;;;;;;0.85;0.75;;;11.80;98.50;;;;;;5480347;26;20410;-82